Terminal Aerodrome Forecast
Issued by NWS Cleveland, OH

Home | Current Version | Previous Version | Graphics & Text | Print | Product List | Glossary Off
Versions: 1 2 3 4 5 6 7 8 9 10 11 12 13 14 15 16 17 18 19 20 21 22 23 24 25 26

000
FTUS41 KCLE 161400 AAA
TAFCLE
TAF AMD
KCLE 161432Z 1615/1718 12004KT P6SM FEW035
     FM162000 07011KT P6SM SCT035 SCT250
     FM170800 14012KT P6SM BKN250
     FM171200 17012KT P6SM SCT250=

USA.gov is the U.S. government's official web portal to all federal, state and local government web resources and services.